Time;durP1;ratioP1;P1;durP2;ratioP2;P2;SDS_P1;SDS_P2;PMS_P1;PMS_P2;Temp;Humidity;BMP_temperature;BMP_pressure;BME280_temperature;BME280_humidity;BME280_pressure;Samples;Min_cycle;Max_cycle;Signal;HPM_P1;HPM_P2
2023/12/12 00:01:41;;;;;;;6.67;0.80;;;;;;;5.51;94.33;97044.25;6256433;28;20214;-51
2023/12/12 00:04:44;;;;;;;3.73;1.10;;;;;;;5.37;95.44;97045.47;6255376;28;20691;-52
2023/12/12 00:07:47;;;;;;;5.43;1.03;;;;;;;4.86;98.26;97042.22;6252509;28;20198;-52
2023/12/12 00:10:49;;;;;;;4.60;1.17;;;;;;;4.46;100.00;97052.41;6256227;28;20195;-51
2023/12/12 00:13:52;;;;;;;4.17;1.30;;;;;;;4.30;100.00;97058.25;6253027;28;20212;-50
2023/12/12 00:16:54;;;;;;;3.90;1.07;;;;;;;4.48;100.00;97057.47;6250876;28;20191;-50
2023/12/12 00:19:57;;;;;;;4.37;1.50;;;;;;;4.68;100.00;97079.19;6251638;28;20349;-52
2023/12/12 00:23:00;;;;;;;9.13;1.83;;;;;;;5.46;95.34;97075.00;6251958;28;20192;-51
2023/12/12 00:26:02;;;;;;;1.43;0.97;;;;;;;5.43;96.15;97073.63;6247832;28;20195;-50
2023/12/12 00:29:05;;;;;;;3.27;1.00;;;;;;;5.28;95.59;97079.31;6249228;28;20201;-51
2023/12/12 00:32:08;;;;;;;4.03;1.07;;;;;;;5.26;96.38;97067.34;6250021;28;20224;-51
2023/12/12 00:35:10;;;;;;;6.33;1.60;;;;;;;5.01;97.35;97088.56;6251167;28;20192;-52
2023/12/12 00:38:13;;;;;;;3.30;1.03;;;;;;;5.10;97.06;97088.03;6258804;28;20695;-49
2023/12/12 00:41:15;;;;;;;6.80;1.30;;;;;;;4.93;98.24;97084.41;6256665;28;20232;-51
2023/12/12 00:44:18;;;;;;;4.30;1.20;;;;;;;4.50;97.96;97060.69;6257025;28;20193;-51
2023/12/12 00:47:20;;;;;;;7.27;1.87;;;;;;;4.56;100.00;97108.09;6259218;28;20699;-50
2023/12/12 00:50:23;;;;;;;6.30;1.30;;;;;;;4.57;100.00;97103.63;6247285;28;20204;-49
2023/12/12 00:53:25;;;;;;;3.53;1.03;;;;;;;5.51;100.00;97102.34;6244580;28;20203;-49
2023/12/12 00:56:28;;;;;;;5.37;1.33;;;;;;;5.16;97.38;97096.91;6258737;28;20210;-50
2023/12/12 00:59:31;;;;;;;3.27;1.00;;;;;;;4.56;100.00;97086.19;6250585;28;20195;-50
2023/12/12 01:02:33;;;;;;;3.10;0.83;;;;;;;4.56;100.00;97112.56;6245809;28;20251;-50
2023/12/12 01:05:36;;;;;;;3.17;1.03;;;;;;;4.82;100.00;97114.94;6249877;28;20266;-53
2023/12/12 01:08:39;;;;;;;3.57;1.20;;;;;;;5.23;100.00;97112.69;6256714;28;20215;-49
2023/12/12 01:11:41;;;;;;;8.67;1.57;;;;;;;5.14;100.00;97112.19;6252791;28;20195;-48
2023/12/12 01:14:44;;;;;;;2.47;1.00;;;;;;;5.16;100.00;97112.75;6252204;28;20737;-48
2023/12/12 01:17:46;;;;;;;3.63;1.03;;;;;;;5.23;100.00;97110.06;6255699;28;20534;-50
2023/12/12 01:20:49;;;;;;;6.60;1.10;;;;;;;5.57;100.00;97114.69;6246054;28;20233;-48
2023/12/12 01:23:55;;;;;;;3.60;0.90;;;;;;;5.51;100.00;97117.41;6254159;28;20204;-49
2023/12/12 01:26:57;;;;;;;2.93;1.07;;;;;;;5.41;99.82;97121.38;6259955;28;20200;-51
2023/12/12 01:30:00;;;;;;;4.27;1.13;;;;;;;6.14;97.06;97117.75;6260168;28;20188;-50
2023/12/12 01:33:02;;;;;;;3.17;1.20;;;;;;;5.94;95.10;97120.69;6253384;28;20705;-49
2023/12/12 01:36:05;;;;;;;2.70;0.90;;;;;;;5.73;97.75;97130.94;6255852;28;20193;-51
2023/12/12 01:39:09;;;;;;;3.77;0.90;;;;;;;5.24;99.46;97143.34;6237320;28;20530;-52
2023/12/12 01:42:11;;;;;;;4.07;0.80;;;;;;;5.47;100.00;97146.13;6252444;28;20547;-49
2023/12/12 01:45:15;;;;;;;4.67;1.17;;;;;;;5.21;100.00;97146.41;6253104;28;20186;-48
2023/12/12 01:48:22;;;;;;;3.03;1.00;;;;;;;5.02;100.00;97153.53;6251116;28;20189;-48
2023/12/12 01:51:25;;;;;;;4.53;1.07;;;;;;;5.36;100.00;97150.28;6249957;28;20197;-48
2023/12/12 01:54:29;;;;;;;3.63;0.90;;;;;;;5.18;100.00;97163.53;6238076;28;20235;-48
2023/12/12 01:57:31;;;;;;;3.47;0.70;;;;;;;5.12;100.00;97153.81;6253201;28;20247;-50
2023/12/12 02:00:36;;;;;;;2.17;0.80;;;;;;;5.51;100.00;97146.47;6235426;28;20200;-49
2023/12/12 02:03:40;;;;;;;2.10;0.90;;;;;;;5.53;100.00;97169.00;6259296;28;20266;-49
2023/12/12 02:06:46;;;;;;;8.03;1.10;;;;;;;5.14;100.00;97170.25;6256458;28;20200;-49
2023/12/12 02:09:52;;;;;;;6.77;1.60;;;;;;;5.05;100.00;97164.47;6259750;28;20256;-48
2023/12/12 02:12:55;;;;;;;2.03;0.80;;;;;;;4.86;100.00;97162.81;6257125;28;20286;-50
2023/12/12 02:15:58;;;;;;;1.90;1.23;;;;;;;4.88;100.00;97158.97;6257538;28;20184;-51
2023/12/12 02:19:01;;;;;;;3.60;1.13;;;;;;;4.82;100.00;97137.88;6255086;28;20198;-49
2023/12/12 02:22:04;;;;;;;4.33;1.00;;;;;;;4.59;100.00;97146.44;6247305;28;20209;-50
2023/12/12 02:25:07;;;;;;;1.30;0.60;;;;;;;4.42;100.00;97145.38;6256541;28;20200;-49
2023/12/12 02:28:12;;;;;;;3.90;1.33;;;;;;;4.01;100.00;97117.69;6253072;28;20196;-48
2023/12/12 02:31:16;;;;;;;3.93;1.00;;;;;;;4.37;100.00;97144.16;6260856;28;20192;-49
2023/12/12 02:34:19;;;;;;;2.33;0.80;;;;;;;4.09;100.00;97139.34;6256351;28;20206;-50
2023/12/12 02:37:22;;;;;;;2.27;0.87;;;;;;;3.92;100.00;97138.22;6256005;28;20748;-52
2023/12/12 02:40:24;;;;;;;2.60;1.10;;;;;;;3.95;100.00;97144.91;6255320;28;20216;-49
2023/12/12 02:43:28;;;;;;;2.70;1.00;;;;;;;3.82;100.00;97148.41;6257895;28;20219;-48
2023/12/12 02:46:30;;;;;;;3.00;1.07;;;;;;;3.67;100.00;97156.59;6254507;28;20337;-48
2023/12/12 02:49:32;;;;;;;1.70;0.80;;;;;;;4.07;100.00;97164.28;6256226;28;20208;-48
2023/12/12 02:52:35;;;;;;;5.17;1.20;;;;;;;4.31;100.00;97162.69;6246447;28;20283;-48
2023/12/12 02:55:37;;;;;;;2.17;1.00;;;;;;;3.84;100.00;97126.13;6256632;28;20564;-48
2023/12/12 02:58:40;;;;;;;3.70;1.13;;;;;;;4.21;100.00;97165.81;6255826;28;20191;-50
2023/12/12 03:01:42;;;;;;;3.03;1.03;;;;;;;4.78;100.00;97171.00;6253953;28;20215;-46
2023/12/12 03:04:45;;;;;;;2.23;0.90;;;;;;;5.02;100.00;97170.16;6254620;28;20196;-48
2023/12/12 03:07:48;;;;;;;3.73;1.30;;;;;;;4.90;100.00;97198.31;6262557;28;20195;-49
2023/12/12 03:10:50;;;;;;;4.00;1.20;;;;;;;5.23;100.00;97184.78;6257779;28;20194;-50
2023/12/12 03:13:52;;;;;;;2.10;0.60;;;;;;;5.15;100.00;97179.78;6257159;28;20195;-48
2023/12/12 03:16:55;;;;;;;2.77;1.23;;;;;;;5.11;100.00;97187.34;6257558;28;20215;-47
2023/12/12 03:19:57;;;;;;;1.73;0.80;;;;;;;4.98;100.00;97184.03;6256632;28;20723;-47
2023/12/12 03:23:00;;;;;;;3.10;1.00;;;;;;;4.68;100.00;97174.16;6241471;28;20806;-47
2023/12/12 03:26:07;;;;;;;5.40;1.27;;;;;;;4.30;100.00;97140.78;6258730;28;20200;-49
2023/12/12 03:29:11;;;;;;;2.40;0.90;;;;;;;4.29;100.00;97188.47;6238414;28;20193;-48
2023/12/12 03:32:13;;;;;;;2.57;0.97;;;;;;;5.10;100.00;97192.84;6257926;28;20600;-47
2023/12/12 03:35:15;;;;;;;2.57;1.00;;;;;;;5.28;100.00;97179.66;6261174;28;20849;-48
2023/12/12 03:38:18;;;;;;;2.90;0.97;;;;;;;5.13;100.00;97189.78;6262185;28;20200;-48
2023/12/12 03:41:24;;;;;;;3.33;0.97;;;;;;;5.22;100.00;97200.84;6259815;28;20208;-49
2023/12/12 03:44:26;;;;;;;3.03;1.00;;;;;;;5.22;100.00;97195.56;6252387;28;20662;-48
2023/12/12 03:47:29;;;;;;;1.87;0.80;;;;;;;5.07;100.00;97196.72;6253888;28;20204;-50
2023/12/12 03:50:33;;;;;;;1.30;0.90;;;;;;;4.60;100.00;97140.13;6260061;28;20198;-51
2023/12/12 03:53:37;;;;;;;5.23;1.00;;;;;;;4.85;100.00;97198.16;6256138;28;20221;-51
2023/12/12 03:56:40;;;;;;;5.07;1.30;;;;;;;4.61;100.00;97178.69;6250999;28;20258;-49
2023/12/12 03:59:43;;;;;;;3.00;0.83;;;;;;;4.31;100.00;97195.13;6256218;28;20204;-49
2023/12/12 04:02:45;;;;;;;3.57;0.87;;;;;;;4.63;100.00;97203.84;6255099;28;20604;-49
2023/12/12 04:05:48;;;;;;;5.00;1.47;;;;;;;4.98;100.00;97210.44;6251253;28;20196;-49
2023/12/12 04:08:51;;;;;;;1.37;0.87;;;;;;;5.16;100.00;97224.44;6252986;28;20234;-49
2023/12/12 04:11:53;;;;;;;3.07;0.93;;;;;;;5.27;100.00;97220.31;6255998;28;20192;-48
2023/12/12 04:14:56;;;;;;;3.43;1.27;;;;;;;5.64;100.00;97228.22;6252301;28;20289;-49
2023/12/12 04:17:59;;;;;;;3.07;1.20;;;;;;;5.46;100.00;97215.81;6251403;28;20193;-48
2023/12/12 04:21:02;;;;;;;4.13;1.20;;;;;;;5.41;100.00;97216.47;6249976;28;20209;-47
2023/12/12 04:24:05;;;;;;;2.23;0.90;;;;;;;4.83;100.00;97187.84;6255619;28;20193;-48
2023/12/12 04:27:07;;;;;;;3.43;1.40;;;;;;;5.11;100.00;97226.13;6247586;28;20224;-48
2023/12/12 04:30:10;;;;;;;3.53;1.00;;;;;;;5.25;100.00;97227.63;6244376;28;20186;-49
2023/12/12 04:33:13;;;;;;;3.57;1.13;;;;;;;5.22;100.00;97220.16;6246162;28;20225;-50
2023/12/12 04:36:15;;;;;;;2.87;1.20;;;;;;;4.95;100.00;97201.09;6255298;28;20191;-50
2023/12/12 04:39:19;;;;;;;2.63;1.07;;;;;;;4.88;100.00;97235.50;6256849;28;20203;-50
2023/12/12 04:42:23;;;;;;;4.10;1.13;;;;;;;5.52;100.00;97235.28;6250986;28;20251;-48
2023/12/12 04:45:25;;;;;;;2.60;1.20;;;;;;;5.81;100.00;97236.34;6253894;28;20199;-47
2023/12/12 04:48:28;;;;;;;5.20;1.17;;;;;;;5.97;100.00;97240.25;6254478;28;20204;-48
2023/12/12 04:51:31;;;;;;;7.10;1.60;;;;;;;6.22;100.00;97238.28;6249038;28;20189;-48
2023/12/12 04:54:34;;;;;;;2.87;1.00;;;;;;;6.25;99.08;97259.00;6248109;28;20224;-48
2023/12/12 04:57:36;;;;;;;3.07;1.20;;;;;;;5.86;100.00;97263.75;6231543;28;20206;-48
2023/12/12 05:00:39;;;;;;;3.70;1.20;;;;;;;5.86;100.00;97284.06;6251853;28;20204;-51
2023/12/12 05:03:41;;;;;;;3.30;1.00;;;;;;;5.57;100.00;97288.28;6246104;28;20218;-48
2023/12/12 05:06:44;;;;;;;5.10;1.20;;;;;;;5.23;100.00;97286.97;6251571;28;20192;-51
2023/12/12 05:09:47;;;;;;;8.07;2.07;;;;;;;5.82;100.00;97281.06;6254301;28;20854;-50
2023/12/12 05:12:50;;;;;;;3.47;1.40;;;;;;;5.55;100.00;97285.81;6253967;28;20186;-49
2023/12/12 05:15:52;;;;;;;7.03;1.90;;;;;;;5.71;100.00;97281.78;6246234;28;20281;-50
2023/12/12 05:18:55;;;;;;;3.10;1.13;;;;;;;5.49;100.00;97260.28;6254636;28;20287;-48
2023/12/12 05:21:58;;;;;;;8.23;1.40;;;;;;;5.15;100.00;97256.34;6253394;28;20558;-50
2023/12/12 05:25:01;;;;;;;6.17;1.30;;;;;;;4.82;100.00;97264.56;6252989;28;20228;-49
2023/12/12 05:28:05;;;;;;;2.60;1.03;;;;;;;4.61;100.00;97284.19;6259113;28;20208;-47
2023/12/12 05:31:09;;;;;;;4.83;1.37;;;;;;;5.39;100.00;97286.41;6253279;28;20194;-48
2023/12/12 05:34:11;;;;;;;4.80;1.50;;;;;;;5.29;100.00;97294.81;6262419;28;20236;-47
2023/12/12 05:37:15;;;;;;;3.50;1.00;;;;;;;5.31;100.00;97290.13;6258670;28;20278;-48
2023/12/12 05:40:18;;;;;;;3.33;1.23;;;;;;;5.14;100.00;97291.72;6257302;28;20277;-49
2023/12/12 05:43:24;;;;;;;6.10;1.37;;;;;;;5.17;100.00;97297.38;6257311;28;20211;-48
2023/12/12 05:46:30;;;;;;;4.20;1.37;;;;;;;4.82;100.00;97304.13;6252169;28;20191;-48
2023/12/12 05:49:34;;;;;;;4.83;1.27;;;;;;;4.61;100.00;97310.56;6256703;28;20321;-50
2023/12/12 05:52:39;;;;;;;1.03;0.87;;;;;;;4.35;100.00;97312.34;6253121;28;20215;-47
2023/12/12 05:55:43;;;;;;;3.47;1.30;;;;;;;4.07;100.00;97327.69;6249743;28;20192;-48
2023/12/12 05:58:45;;;;;;;2.23;0.90;;;;;;;3.78;100.00;97316.63;6255842;28;20192;-47
2023/12/12 06:01:48;;;;;;;7.50;1.63;;;;;;;3.39;100.00;97288.56;6258311;28;20218;-48
2023/12/12 06:04:50;;;;;;;2.47;0.80;;;;;;;3.53;100.00;97334.94;6262295;28;20243;-49
2023/12/12 06:07:53;;;;;;;5.47;1.00;;;;;;;3.45;100.00;97336.97;6255750;28;20198;-49
2023/12/12 06:10:55;;;;;;;8.50;1.10;;;;;;;3.43;100.00;97342.44;6257705;28;20206;-47
2023/12/12 06:13:57;;;;;;;5.00;1.20;;;;;;;3.44;100.00;97346.69;6253070;28;20189;-46
2023/12/12 06:16:59;;;;;;;6.87;1.60;;;;;;;3.33;100.00;97345.47;6249764;28;20278;-47
2023/12/12 06:20:02;;;;;;;6.43;1.43;;;;;;;3.26;100.00;97355.22;6251850;28;20207;-48
2023/12/12 06:23:04;;;;;;;2.67;1.10;;;;;;;3.29;100.00;97339.00;6251257;28;20219;-48
2023/12/12 06:26:07;;;;;;;5.43;1.33;;;;;;;3.22;100.00;97342.66;6252910;28;20277;-47
2023/12/12 06:29:09;;;;;;;2.37;0.90;;;;;;;3.18;100.00;97342.25;6261296;28;20250;-45
2023/12/12 06:32:11;;;;;;;4.73;1.90;;;;;;;3.10;100.00;97343.28;6256783;28;20757;-46
2023/12/12 06:35:13;;;;;;;5.70;1.23;;;;;;;3.02;100.00;97350.56;6254197;28;20199;-46
2023/12/12 06:38:16;;;;;;;2.80;0.90;;;;;;;2.97;100.00;97350.34;6253948;28;20200;-46
2023/12/12 06:41:20;;;;;;;3.83;1.03;;;;;;;2.96;100.00;97332.97;6258974;28;20226;-47
2023/12/12 06:44:22;;;;;;;5.43;1.43;;;;;;;3.04;100.00;97351.97;6258794;28;20188;-46
2023/12/12 06:47:25;;;;;;;4.83;1.53;;;;;;;3.02;100.00;97354.00;6256886;28;20199;-46
2023/12/12 06:50:27;;;;;;;3.23;1.47;;;;;;;3.00;100.00;97365.72;6260036;28;20201;-47
2023/12/12 06:53:30;;;;;;;4.97;1.10;;;;;;;2.99;100.00;97362.28;6254195;28;20198;-47
2023/12/12 06:56:32;;;;;;;6.73;2.17;;;;;;;3.01;100.00;97367.38;6249614;28;20212;-47
2023/12/12 06:59:34;;;;;;;5.50;1.93;;;;;;;3.01;100.00;97380.53;6249991;28;20680;-46
2023/12/12 07:02:36;;;;;;;5.50;1.50;;;;;;;3.06;100.00;97388.63;6255454;28;20586;-47
2023/12/12 07:05:39;;;;;;;2.63;1.10;;;;;;;3.09;100.00;97386.38;6252248;28;20561;-46
2023/12/12 07:08:41;;;;;;;4.30;1.33;;;;;;;3.27;100.00;97387.63;6247830;28;20679;-45
2023/12/12 07:11:44;;;;;;;5.13;1.50;;;;;;;3.26;100.00;97389.44;6251607;28;20357;-46
2023/12/12 07:14:46;;;;;;;3.60;1.30;;;;;;;3.25;100.00;97400.16;6255174;28;20573;-47
2023/12/12 07:17:49;;;;;;;4.33;1.20;;;;;;;3.36;100.00;97384.59;6258818;28;20563;-49
2023/12/12 07:20:51;;;;;;;7.70;1.60;;;;;;;3.42;100.00;97382.94;6259050;28;20199;-45
2023/12/12 07:23:53;;;;;;;8.03;2.00;;;;;;;3.37;100.00;97364.31;6260602;28;20275;-47
2023/12/12 07:26:56;;;;;;;7.20;1.43;;;;;;;3.76;100.00;97371.38;6258510;28;20579;-47
2023/12/12 07:29:58;;;;;;;5.60;1.73;;;;;;;3.91;100.00;97375.59;6262092;28;20189;-47
2023/12/12 07:33:01;;;;;;;4.47;1.10;;;;;;;3.86;100.00;97374.38;6254289;28;20238;-46
2023/12/12 07:36:03;;;;;;;5.77;1.63;;;;;;;4.09;100.00;97375.75;6248933;28;20202;-48
2023/12/12 07:39:06;;;;;;;5.97;1.67;;;;;;;4.35;100.00;97380.09;6253941;28;20227;-49
2023/12/12 07:42:08;;;;;;;4.03;1.53;;;;;;;4.59;100.00;97389.94;6247513;28;20562;-47
2023/12/12 07:45:10;;;;;;;3.53;1.30;;;;;;;5.07;100.00;97381.50;6259085;28;20195;-47
2023/12/12 07:48:12;;;;;;;1.73;1.00;;;;;;;5.02;100.00;97369.97;6255348;28;20578;-48
2023/12/12 07:51:16;;;;;;;5.30;1.43;;;;;;;5.11;100.00;97387.19;6251835;28;20594;-48
2023/12/12 07:54:18;;;;;;;4.73;1.23;;;;;;;5.23;100.00;97379.41;6253471;28;20193;-49
2023/12/12 07:57:20;;;;;;;2.93;1.20;;;;;;;5.52;100.00;97391.97;6255659;28;20195;-48
2023/12/12 08:00:23;;;;;;;4.37;1.30;;;;;;;5.62;100.00;97381.72;6254415;28;20196;-47
2023/12/12 08:03:25;;;;;;;3.97;1.27;;;;;;;5.41;100.00;97387.34;6257461;28;20759;-46
2023/12/12 08:06:29;;;;;;;5.33;1.47;;;;;;;5.12;100.00;97386.16;6247423;28;20209;-47
2023/12/12 08:09:31;;;;;;;2.93;1.03;;;;;;;4.81;100.00;97386.97;6253773;28;20658;-47
2023/12/12 08:12:33;;;;;;;7.67;1.53;;;;;;;4.58;100.00;97395.41;6255643;28;20198;-46
2023/12/12 08:15:36;;;;;;;3.80;1.37;;;;;;;4.24;100.00;97364.94;6256314;28;20198;-46
2023/12/12 08:18:38;;;;;;;2.03;1.00;;;;;;;4.26;100.00;97391.91;6252957;28;20205;-47
2023/12/12 08:21:41;;;;;;;5.70;1.73;;;;;;;4.11;100.00;97385.06;6250523;28;20212;-46
2023/12/12 08:24:45;;;;;;;2.73;1.40;;;;;;;4.08;100.00;97393.38;6245239;28;20670;-47
2023/12/12 08:27:47;;;;;;;5.23;1.10;;;;;;;4.04;100.00;97386.06;6249879;28;20204;-47
2023/12/12 08:30:49;;;;;;;3.27;1.23;;;;;;;4.08;100.00;97396.00;6252038;28;20751;-47
2023/12/12 08:33:51;;;;;;;3.07;1.03;;;;;;;4.01;100.00;97400.50;6251997;28;20244;-54
2023/12/12 08:36:54;;;;;;;2.70;0.97;;;;;;;3.98;100.00;97400.91;6256080;28;20184;-56
2023/12/12 08:39:56;;;;;;;2.40;1.17;;;;;;;3.94;100.00;97399.72;6255761;28;20210;-52
2023/12/12 08:42:58;;;;;;;1.30;1.10;;;;;;;3.94;100.00;97397.09;6253102;28;20570;-53
2023/12/12 08:46:01;;;;;;;3.53;1.17;;;;;;;4.04;100.00;97399.25;6250702;28;20275;-52
2023/12/12 08:49:03;;;;;;;5.37;1.17;;;;;;;3.93;100.00;97405.16;6250583;28;20196;-54
2023/12/12 08:52:07;;;;;;;2.80;1.00;;;;;;;3.91;100.00;97407.22;6252496;28;20769;-54
2023/12/12 08:55:10;;;;;;;2.20;0.97;;;;;;;3.81;100.00;97403.16;6245412;28;20203;-53
2023/12/12 08:58:13;;;;;;;4.53;1.23;;;;;;;3.75;100.00;97401.38;6247304;28;20207;-51
2023/12/12 09:01:16;;;;;;;2.53;1.00;;;;;;;3.66;100.00;97401.78;6248733;28;20192;-54
2023/12/12 09:04:19;;;;;;;5.20;1.17;;;;;;;3.38;100.00;97357.22;6247280;28;20241;-50
2023/12/12 09:07:21;;;;;;;3.87;1.10;;;;;;;3.57;100.00;97401.97;6244785;28;20200;-52
2023/12/12 09:10:24;;;;;;;4.30;1.27;;;;;;;3.58;100.00;97403.59;6245238;28;20559;-53
2023/12/12 09:13:27;;;;;;;3.63;1.10;;;;;;;3.57;100.00;97398.53;6249250;28;20199;-52
2023/12/12 09:16:29;;;;;;;4.77;1.60;;;;;;;3.55;100.00;97384.78;6251680;28;20210;-55
2023/12/12 09:19:33;;;;;;;5.03;1.37;;;;;;;3.55;100.00;97395.31;6254467;28;20211;-53
2023/12/12 09:22:35;;;;;;;3.00;0.90;;;;;;;3.51;100.00;97391.47;6251982;28;20211;-54
2023/12/12 09:25:38;;;;;;;3.00;1.00;;;;;;;3.55;100.00;97403.22;6260598;28;20679;-52
2023/12/12 09:28:41;;;;;;;3.77;1.30;;;;;;;3.51;100.00;97389.63;6262216;28;20337;-52
2023/12/12 09:31:44;;;;;;;2.43;1.03;;;;;;;3.53;100.00;97397.31;6259194;28;20246;-55
2023/12/12 09:34:47;;;;;;;5.77;1.37;;;;;;;3.50;100.00;97395.13;6256868;28;20805;-54
2023/12/12 09:37:50;;;;;;;4.80;1.10;;;;;;;3.47;100.00;97382.34;6256324;28;20189;-54
2023/12/12 09:40:52;;;;;;;3.40;1.07;;;;;;;3.48;100.00;97373.44;6249062;28;20742;-55
2023/12/12 09:43:55;;;;;;;6.43;1.23;;;;;;;3.53;100.00;97376.25;6250838;28;20218;-54
2023/12/12 09:46:58;;;;;;;12.27;2.27;;;;;;;3.51;100.00;97367.75;6249817;28;20270;-55
2023/12/12 09:50:00;;;;;;;5.77;1.10;;;;;;;3.60;100.00;97362.06;6251760;28;20219;-54
2023/12/12 09:53:03;;;;;;;2.73;0.80;;;;;;;3.63;100.00;97366.91;6251702;28;20191;-56
2023/12/12 09:56:07;;;;;;;2.87;1.27;;;;;;;3.68;100.00;97358.41;6252971;28;20572;-54
2023/12/12 09:59:09;;;;;;;7.00;1.73;;;;;;;3.75;100.00;97353.94;6255421;28;20195;-55
2023/12/12 10:02:22;;;;;;;4.70;0.97;;;;;;;3.82;100.00;97343.38;6257178;28;20215;-52
2023/12/12 10:05:28;;;;;;;3.73;1.10;;;;;;;3.86;100.00;97344.59;6255191;28;20207;-51
2023/12/12 10:08:31;;;;;;;4.23;1.60;;;;;;;3.92;100.00;97343.75;6258059;28;20723;-56
2023/12/12 10:11:33;;;;;;;1.90;1.17;;;;;;;3.94;100.00;97335.63;6244354;28;20203;-54
2023/12/12 10:14:36;;;;;;;5.00;1.60;;;;;;;4.03;100.00;97334.38;6256192;28;20646;-53
2023/12/12 10:17:39;;;;;;;7.37;1.30;;;;;;;4.00;100.00;97330.34;6246114;28;20199;-54
2023/12/12 10:20:41;;;;;;;5.73;1.43;;;;;;;4.07;100.00;97325.06;6244168;28;20716;-55
2023/12/12 10:23:47;;;;;;;4.83;1.90;;;;;;;4.13;100.00;97332.91;6251684;28;20207;-55
2023/12/12 10:26:49;;;;;;;4.37;1.60;;;;;;;4.16;100.00;97328.28;6250022;28;20226;-54
2023/12/12 10:29:51;;;;;;;4.00;1.90;;;;;;;4.12;100.00;97325.22;6254752;28;20674;-53
2023/12/12 10:32:54;;;;;;;4.33;1.67;;;;;;;4.15;100.00;97327.47;6252687;28;20235;-54
2023/12/12 10:36:01;;;;;;;6.63;1.27;;;;;;;4.20;100.00;97329.47;6257243;28;20778;-52
2023/12/12 10:39:12;;;;;;;8.63;1.57;;;;;;;4.23;100.00;97324.56;6256986;28;20293;-53
2023/12/12 10:42:15;;;;;;;5.27;1.20;;;;;;;4.32;100.00;97318.03;6255888;28;20698;-52
2023/12/12 10:45:17;;;;;;;3.83;1.10;;;;;;;4.44;100.00;97314.75;6254013;28;20715;-55
2023/12/12 10:48:21;;;;;;;3.90;1.30;;;;;;;4.66;100.00;97308.09;6253043;28;20307;-55
2023/12/12 10:51:25;;;;;;;4.67;1.10;;;;;;;4.84;100.00;97308.19;6253022;28;20254;-51
2023/12/12 10:54:28;;;;;;;6.87;1.63;;;;;;;5.07;100.00;97304.94;6254377;28;20752;-52
2023/12/12 10:57:31;;;;;;;4.17;1.47;;;;;;;5.31;100.00;97294.59;6254234;28;20553;-53
2023/12/12 11:00:34;;;;;;;8.07;1.60;;;;;;;5.47;100.00;97306.44;6249479;28;20204;-53
2023/12/12 11:03:37;;;;;;;4.57;1.30;;;;;;;5.56;100.00;97294.56;6245880;28;20758;-51
2023/12/12 11:06:43;;;;;;;7.33;1.60;;;;;;;5.72;100.00;97287.91;6250170;28;20194;-51
2023/12/12 11:09:45;;;;;;;5.90;1.50;;;;;;;5.85;100.00;97293.03;6249368;28;20186;-55
2023/12/12 11:12:53;;;;;;;7.43;1.60;;;;;;;6.01;100.00;97289.84;6248366;28;20201;-54
2023/12/12 11:15:58;;;;;;;4.17;1.47;;;;;;;7.12;94.75;97282.34;6254103;28;20280;-55
2023/12/12 11:19:03;;;;;;;6.47;1.47;;;;;;;7.00;96.23;97270.94;6255875;28;20266;-54
2023/12/12 11:22:06;;;;;;;6.10;1.37;;;;;;;6.55;98.36;97231.69;6249977;28;20293;-51
2023/12/12 11:25:13;;;;;;;2.67;1.37;;;;;;;6.55;99.71;97263.47;6234695;28;20210;-55
2023/12/12 11:28:15;;;;;;;3.03;1.30;;;;;;;6.51;98.85;97263.13;6249151;28;20191;-51
2023/12/12 11:31:26;;;;;;;6.83;1.23;;;;;;;6.55;98.44;97258.16;6247181;28;20241;-55
2023/12/12 11:34:40;;;;;;;6.63;1.40;;;;;;;6.40;99.02;97251.47;6258462;28;20865;-53
2023/12/12 11:37:44;;;;;;;3.67;1.60;;;;;;;6.37;98.31;97243.19;6256796;28;20203;-55
2023/12/12 11:41:13;;;;;;;7.73;1.90;;;;;;;6.17;99.68;97246.91;6250481;28;20202;-54
2023/12/12 11:44:18;;;;;;;6.00;1.20;;;;;;;5.90;100.00;97235.00;6253223;28;20303;-55
2023/12/12 11:47:30;;;;;;;6.00;1.30;;;;;;;5.73;100.00;97234.03;6252585;28;20211;-54
2023/12/12 11:50:33;;;;;;;4.40;1.27;;;;;;;5.58;100.00;97219.34;6258030;28;20202;-54
2023/12/12 11:53:39;;;;;;;7.67;1.47;;;;;;;5.43;100.00;97214.44;6254936;28;20190;-53
2023/12/12 11:56:41;;;;;;;5.60;1.37;;;;;;;5.40;100.00;97222.78;6257889;28;20210;-52
2023/12/12 11:59:43;;;;;;;3.10;1.30;;;;;;;5.31;100.00;97183.69;6255465;28;20601;-53
2023/12/12 12:02:46;;;;;;;4.27;1.30;;;;;;;5.48;100.00;97211.13;6258389;28;20721;-54
2023/12/12 12:05:48;;;;;;;3.30;1.50;;;;;;;5.47;100.00;97224.53;6261194;28;20331;-55
2023/12/12 12:08:51;;;;;;;3.60;1.13;;;;;;;5.50;100.00;97195.84;6257630;28;20563;-54
2023/12/12 12:11:53;;;;;;;4.30;1.27;;;;;;;5.60;100.00;97197.97;6246010;28;20205;-54
2023/12/12 12:15:11;;;;;;;8.10;1.50;;;;;;;5.74;100.00;97186.22;6246397;28;20195;-55
2023/12/12 12:18:26;;;;;;;4.63;1.40;;;;;;;5.81;100.00;97186.97;6249243;28;20202;-52
2023/12/12 12:21:30;;;;;;;7.57;1.37;;;;;;;5.91;100.00;97178.47;6237727;28;20210;-54
2023/12/12 12:24:40;;;;;;;4.97;1.80;;;;;;;5.90;100.00;97168.94;6252309;28;20202;-55
2023/12/12 12:27:49;;;;;;;3.23;1.20;;;;;;;5.99;100.00;97180.84;6250163;28;20194;-52
2023/12/12 12:30:51;;;;;;;7.23;1.40;;;;;;;6.00;100.00;97182.44;6251431;28;20582;-53
2023/12/12 12:33:53;;;;;;;6.33;1.20;;;;;;;5.94;100.00;97191.28;6250340;28;20234;-55
2023/12/12 12:36:57;;;;;;;6.27;1.50;;;;;;;5.77;100.00;97191.06;6254364;28;20217;-50
2023/12/12 12:40:04;;;;;;;5.53;1.40;;;;;;;5.60;100.00;97195.34;6256287;28;20717;-53
2023/12/12 12:43:22;;;;;;;8.07;1.83;;;;;;;5.44;99.93;97210.75;6249366;28;20209;-50
2023/12/12 12:46:24;;;;;;;6.53;1.10;;;;;;;5.32;100.00;97201.13;6253571;28;20219;-55
2023/12/12 12:49:26;;;;;;;5.40;1.53;;;;;;;5.21;100.00;97202.66;6246124;28;20747;-52
2023/12/12 12:52:29;;;;;;;2.23;1.00;;;;;;;5.13;100.00;97203.78;6254032;28;20198;-55
2023/12/12 12:55:32;;;;;;;5.57;1.43;;;;;;;5.00;100.00;97200.47;6252158;28;20208;-52
2023/12/12 12:58:34;;;;;;;5.43;1.30;;;;;;;4.94;100.00;97182.84;6248755;28;20692;-55
2023/12/12 13:01:40;;;;;;;5.23;1.60;;;;;;;4.94;100.00;97183.66;6248675;28;20653;-54
2023/12/12 13:04:42;;;;;;;2.40;1.30;;;;;;;4.87;100.00;97173.16;6248178;28;20201;-54
2023/12/12 13:07:44;;;;;;;4.63;1.60;;;;;;;5.01;100.00;97165.13;6251428;28;20588;-54
2023/12/12 13:10:46;;;;;;;3.97;1.30;;;;;;;5.03;100.00;97155.16;6243475;28;20399;-53
2023/12/12 13:13:52;;;;;;;4.50;1.20;;;;;;;4.88;100.00;97132.56;6255222;28;20339;-53
2023/12/12 13:16:54;;;;;;;2.93;1.00;;;;;;;4.83;100.00;97158.81;6254294;28;20202;-51
2023/12/12 13:19:57;;;;;;;5.77;1.20;;;;;;;4.82;100.00;97175.63;6246457;28;20669;-54
2023/12/12 13:23:00;;;;;;;7.50;1.40;;;;;;;4.74;100.00;97181.22;6249925;28;20328;-53
2023/12/12 13:26:04;;;;;;;4.40;1.13;;;;;;;4.75;100.00;97185.47;6247133;28;20193;-54
2023/12/12 13:29:07;;;;;;;4.77;1.27;;;;;;;4.74;100.00;97189.13;6244525;28;20286;-51
2023/12/12 13:32:09;;;;;;;4.37;1.40;;;;;;;4.72;100.00;97177.16;6244897;28;20228;-52
2023/12/12 13:35:12;;;;;;;6.37;1.53;;;;;;;4.66;100.00;97171.72;6248944;28;20193;-55
2023/12/12 13:38:32;;;;;;;4.00;1.33;;;;;;;4.53;100.00;97168.38;6246410;28;20192;-56
2023/12/12 13:41:34;;;;;;;7.73;1.97;;;;;;;4.53;100.00;97161.31;6251413;28;20203;-54
2023/12/12 13:44:36;;;;;;;6.53;1.90;;;;;;;4.41;100.00;97149.81;6251799;28;20239;-53
2023/12/12 13:47:38;;;;;;;5.97;1.50;;;;;;;4.30;100.00;97145.25;6251369;28;20204;-53
2023/12/12 13:50:41;;;;;;;2.70;1.57;;;;;;;4.19;100.00;97154.69;6253883;28;20198;-54
2023/12/12 13:53:43;;;;;;;5.13;1.37;;;;;;;4.12;100.00;97148.63;6253939;28;20190;-53
2023/12/12 13:56:45;;;;;;;3.37;1.33;;;;;;;4.03;100.00;97152.53;6255726;28;20212;-54
2023/12/12 13:59:47;;;;;;;7.70;1.40;;;;;;;3.97;100.00;97156.03;6257941;28;20206;-56
2023/12/12 14:02:49;;;;;;;4.10;1.70;;;;;;;3.81;100.00;97133.63;6255687;28;20200;-53
2023/12/12 14:05:52;;;;;;;6.03;1.27;;;;;;;3.86;100.00;97152.25;6257283;28;20192;-54
2023/12/12 14:08:54;;;;;;;5.40;1.97;;;;;;;3.85;100.00;97148.81;6266040;28;20768;-53
2023/12/12 14:11:56;;;;;;;7.63;1.50;;;;;;;3.79;100.00;97139.13;6252337;28;20204;-52
2023/12/12 14:14:58;;;;;;;7.30;1.37;;;;;;;3.73;100.00;97139.94;6249037;28;20553;-55
2023/12/12 14:18:02;;;;;;;5.43;1.47;;;;;;;3.69;100.00;97137.94;6249001;28;20188;-55
2023/12/12 14:21:05;;;;;;;6.13;2.13;;;;;;;3.63;100.00;97150.13;6250683;28;20627;-51
2023/12/12 14:24:07;;;;;;;2.83;1.30;;;;;;;3.57;100.00;97143.88;6253129;28;20218;-55